Time;durP1;ratioP1;P1;durP2;ratioP2;P2;SDS_P1;SDS_P2;PMS_P1;PMS_P2;Temp;Humidity;BMP_temperature;BMP_pressure;BME280_temperature;BME280_humidity;BME280_pressure;Samples;Min_cycle;Max_cycle;Signal;HPM_P1;HPM_P2
2021/09/01 00:00:21;;;;;;;4.28;1.67;;;17.20;76.30;;;;;;2065142;28;20023;-91
2021/09/01 00:01:21;;;;;;;5.97;1.75;;;17.20;76.30;;;;;;2085321;28;20108;-92
2021/09/01 00:02:22;;;;;;;5.60;1.65;;;17.20;76.20;;;;;;2097981;28;20028;-91
2021/09/01 00:03:23;;;;;;;6.22;2.10;;;17.20;76.20;;;;;;2082013;28;20048;-92
2021/09/01 00:04:24;;;;;;;3.95;1.45;;;17.20;76.20;;;;;;2084559;28;20022;-92
2021/09/01 00:05:24;;;;;;;4.28;1.70;;;17.20;76.20;;;;;;2085271;28;20431;-91
2021/09/01 00:06:25;;;;;;;5.90;1.70;;;17.20;76.20;;;;;;2088709;28;20123;-92
2021/09/01 00:07:26;;;;;;;3.70;1.50;;;17.20;76.30;;;;;;2081671;28;20021;-92
2021/09/01 00:08:26;;;;;;;5.13;1.80;;;17.20;76.30;;;;;;2081941;28;20041;-91
2021/09/01 00:09:27;;;;;;;4.28;1.50;;;17.20;76.30;;;;;;2090310;28;20293;-91
2021/09/01 00:10:28;;;;;;;5.15;1.58;;;17.20;76.20;;;;;;2090892;28;20029;-92
2021/09/01 00:11:28;;;;;;;4.88;1.60;;;17.20;76.20;;;;;;2080802;28;20164;-92
2021/09/01 00:12:29;;;;;;;4.70;1.52;;;17.30;76.20;;;;;;2074494;28;20048;-92
2021/09/01 00:13:30;;;;;;;6.05;1.80;;;17.30;76.20;;;;;;2077885;28;20095;-92
2021/09/01 00:14:31;;;;;;;4.40;1.67;;;17.30;76.20;;;;;;2073141;28;20026;-93
2021/09/01 00:15:32;;;;;;;5.50;1.80;;;17.30;76.20;;;;;;2090808;28;20479;-92
2021/09/01 00:16:33;;;;;;;5.13;1.52;;;17.20;76.20;;;;;;2099467;28;20071;-92
2021/09/01 00:17:36;;;;;;;5.10;1.50;;;17.30;76.20;;;;;;2099566;28;20506;-92
2021/09/01 00:18:37;;;;;;;4.05;1.50;;;17.30;76.20;;;;;;2082372;28;20042;-92
2021/09/01 00:19:38;;;;;;;6.50;1.77;;;17.30;76.20;;;;;;2068002;28;20058;-92
2021/09/01 00:20:38;;;;;;;5.80;1.80;;;17.30;76.10;;;;;;2076293;28;20026;-92
2021/09/01 00:21:40;;;;;;;5.15;1.60;;;17.30;76.10;;;;;;2093590;28;20039;-92
2021/09/01 00:22:40;;;;;;;5.35;1.80;;;17.30;76.10;;;;;;2092186;28;20048;-91
2021/09/01 00:23:41;;;;;;;5.20;1.60;;;17.20;76.10;;;;;;2090588;28;20021;-92
2021/09/01 00:24:42;;;;;;;4.88;1.80;;;17.20;76.10;;;;;;2083665;28;20057;-91
2021/09/01 00:25:43;;;;;;;6.90;2.05;;;17.20;76.10;;;;;;2066934;28;20041;-90
2021/09/01 00:26:44;;;;;;;4.90;1.90;;;17.20;76.20;;;;;;2081584;28;20075;-91
2021/09/01 00:27:45;;;;;;;6.85;1.92;;;17.20;76.40;;;;;;2081370;28;20463;-92
2021/09/01 00:28:46;;;;;;;5.50;1.90;;;17.20;76.10;;;;;;2080894;28;20033;-91
2021/09/01 00:29:46;;;;;;;8.38;2.50;;;17.20;76.10;;;;;;2075777;28;20041;-90
2021/09/01 00:30:47;;;;;;;7.60;2.22;;;17.10;76.00;;;;;;2081520;28;20087;-91
2021/09/01 00:31:48;;;;;;;4.85;1.60;;;17.10;76.00;;;;;;2089718;28;20029;-91
2021/09/01 00:32:48;;;;;;;5.57;2.22;;;17.10;76.10;;;;;;2078331;28;20029;-91
2021/09/01 00:33:49;;;;;;;5.05;1.92;;;17.10;76.10;;;;;;2089670;28;20032;-91
2021/09/01 00:34:50;;;;;;;7.25;1.88;;;17.10;76.10;;;;;;2085039;28;20077;-92
2021/09/01 00:35:52;;;;;;;6.07;1.88;;;17.00;76.10;;;;;;2089225;28;20112;-92
2021/09/01 00:36:52;;;;;;;6.88;2.00;;;17.00;76.00;;;;;;2089834;28;20111;-91
2021/09/01 00:37:53;;;;;;;4.97;1.83;;;17.00;76.00;;;;;;2089998;28;20025;-92
2021/09/01 00:38:54;;;;;;;6.95;1.95;;;17.00;76.00;;;;;;2081320;28;20494;-92
2021/09/01 00:39:55;;;;;;;4.78;1.55;;;17.00;76.00;;;;;;2093016;28;20029;-92
2021/09/01 00:40:56;;;;;;;3.38;1.38;;;17.00;76.00;;;;;;2081590;28;20025;-91
2021/09/01 00:42:07;;;;;;;5.63;1.73;;;17.00;76.00;;;;;;2090003;28;20025;-92
2021/09/01 00:43:08;;;;;;;6.63;1.90;;;17.00;75.90;;;;;;2097172;28;20029;-92
2021/09/01 00:44:19;;;;;;;4.85;1.63;;;17.00;75.90;;;;;;2089652;28;20040;-92
2021/09/01 00:45:20;;;;;;;5.50;2.08;;;17.00;75.90;;;;;;2100373;28;20028;-92
2021/09/01 00:46:21;;;;;;;4.40;1.70;;;16.90;75.90;;;;;;2087099;28;20120;-91
2021/09/01 00:47:22;;;;;;;5.25;2.08;;;17.00;75.90;;;;;;2082110;28;20360;-92
2021/09/01 00:48:24;;;;;;;5.63;1.70;;;16.90;75.90;;;;;;2089378;28;20086;-91
2021/09/01 00:49:29;;;;;;;3.38;1.20;;;17.00;76.00;;;;;;2089685;28;20079;-92
2021/09/01 00:50:30;;;;;;;3.47;1.50;;;17.00;76.00;;;;;;2106473;28;20036;-91
2021/09/01 00:51:31;;;;;;;6.43;1.95;;;17.00;75.90;;;;;;2097013;28;20021;-92
2021/09/01 00:52:32;;;;;;;5.70;1.58;;;17.00;75.90;;;;;;2075648;28;20030;-91
2021/09/01 00:53:37;;;;;;;5.07;1.65;;;17.00;75.90;;;;;;2081681;28;20109;-92
2021/09/01 00:54:39;;;;;;;6.43;1.77;;;17.00;75.80;;;;;;2085679;28;20037;-92
2021/09/01 00:55:44;;;;;;;4.78;1.77;;;17.00;75.80;;;;;;2081504;28;20021;-92
2021/09/01 00:56:53;;;;;;;5.35;1.60;;;17.00;75.80;;;;;;2083450;28;20033;-92
2021/09/01 00:57:54;;;;;;;5.10;1.70;;;17.00;75.70;;;;;;2098993;28;20051;-92
2021/09/01 00:58:54;;;;;;;5.30;1.65;;;17.00;75.70;;;;;;2097904;28;20055;-92
2021/09/01 00:59:56;;;;;;;6.07;1.70;;;17.00;75.70;;;;;;2089708;28;20071;-91
2021/09/01 01:02:00;;;;;;;3.90;1.50;;;17.10;75.70;;;;;;2089298;28;20029;-92
2021/09/01 01:03:01;;;;;;;4.78;1.67;;;17.00;75.60;;;;;;2087432;28;20037;-91
2021/09/01 01:04:02;;;;;;;5.95;1.60;;;17.00;75.60;;;;;;2072293;28;20032;-92
2021/09/01 01:05:03;;;;;;;5.63;1.70;;;17.10;75.60;;;;;;2079700;28;20475;-92
2021/09/01 01:06:04;;;;;;;5.07;1.40;;;17.10;75.70;;;;;;2076043;28;20149;-92
2021/09/01 01:07:11;;;;;;;3.90;1.38;;;17.10;75.70;;;;;;2075935;28;20618;-91
2021/09/01 01:08:12;;;;;;;4.38;1.70;;;17.10;75.70;;;;;;2095301;28;20074;-92
2021/09/01 01:09:13;;;;;;;4.10;1.50;;;17.10;75.70;;;;;;2101458;28;20125;-92
2021/09/01 01:10:13;;;;;;;5.03;1.80;;;17.10;75.60;;;;;;2097577;28;20554;-91
2021/09/01 01:11:14;;;;;;;3.92;1.70;;;17.10;75.60;;;;;;2081589;28;20080;-91
2021/09/01 01:12:19;;;;;;;5.97;1.67;;;17.10;75.60;;;;;;2081507;28;20025;-91
2021/09/01 01:13:20;;;;;;;4.78;1.67;;;17.10;75.60;;;;;;2082473;28;20084;-91
2021/09/01 01:14:20;;;;;;;4.47;1.50;;;17.10;75.60;;;;;;2089667;28;20020;-91
2021/09/01 01:15:21;;;;;;;3.83;1.50;;;17.10;75.60;;;;;;2086177;28;20030;-92
2021/09/01 01:16:24;;;;;;;6.95;1.70;;;17.00;75.60;;;;;;2074091;28;20112;-91
2021/09/01 01:17:25;;;;;;;4.07;1.55;;;17.10;75.70;;;;;;2088067;28;20079;-92
2021/09/01 01:18:26;;;;;;;4.80;1.67;;;17.00;75.70;;;;;;2089383;28;20557;-92
2021/09/01 01:19:26;;;;;;;6.07;1.42;;;17.00;75.70;;;;;;2073146;28;20033;-91
2021/09/01 01:20:27;;;;;;;3.85;1.50;;;17.10;75.70;;;;;;2080605;28;20029;-92
2021/09/01 01:21:29;;;;;;;4.00;1.40;;;17.10;75.70;;;;;;2081136;28;20120;-92
2021/09/01 01:22:30;;;;;;;4.25;1.55;;;17.00;75.60;;;;;;2089877;28;20025;-92
2021/09/01 01:23:30;;;;;;;3.05;1.60;;;17.10;75.60;;;;;;2087766;28;20033;-91
2021/09/01 01:24:44;;;;;;;5.80;1.83;;;17.10;75.60;;;;;;2081434;28;20028;-92
2021/09/01 01:25:46;;;;;;;3.88;1.50;;;17.10;76.30;;;;;;2099151;28;20072;-91
2021/09/01 01:26:47;;;;;;;4.28;1.70;;;17.10;75.60;;;;;;2096363;28;20024;-92
2021/09/01 01:27:47;;;;;;;5.80;1.70;;;17.10;75.60;;;;;;2081213;28;20144;-91
2021/09/01 01:28:51;;;;;;;6.00;1.42;;;17.10;75.70;;;;;;2078846;28;20049;-91
2021/09/01 01:29:52;;;;;;;5.03;1.80;;;17.10;75.70;;;;;;2081463;28;20041;-92
2021/09/01 01:30:53;;;;;;;4.20;1.50;;;17.10;75.60;;;;;;2080646;28;20022;-92
2021/09/01 01:31:53;;;;;;;5.22;1.85;;;17.10;75.60;;;;;;2074439;28;20041;-92
2021/09/01 01:32:54;;;;;;;5.88;1.70;;;17.10;75.70;;;;;;2087352;28;20071;-92
2021/09/01 01:33:55;;;;;;;4.00;1.35;;;17.10;75.70;;;;;;2079420;28;20041;-92
2021/09/01 01:34:56;;;;;;;5.15;1.70;;;17.10;75.80;;;;;;2087589;28;20498;-92
2021/09/01 01:35:57;;;;;;;4.00;1.50;;;17.10;75.80;;;;;;2083808;28;20108;-92
2021/09/01 01:36:57;;;;;;;4.72;1.70;;;17.10;75.80;;;;;;2087295;28;20013;-91
2021/09/01 01:38:00;;;;;;;4.57;1.67;;;17.10;76.40;;;;;;2082895;28;20099;-91
2021/09/01 01:39:01;;;;;;;4.07;1.52;;;17.10;75.80;;;;;;2081892;28;20032;-92
2021/09/01 01:40:03;;;;;;;3.28;1.60;;;17.10;75.80;;;;;;2079128;28;20496;-91
2021/09/01 01:41:04;;;;;;;5.22;1.50;;;17.10;75.80;;;;;;2088567;28;20063;-91
2021/09/01 01:42:05;;;;;;;7.05;1.60;;;17.10;75.90;;;;;;2080351;28;20124;-92
2021/09/01 01:43:06;;;;;;;5.68;1.63;;;17.10;75.80;;;;;;2089495;28;20480;-92
2021/09/01 01:44:07;;;;;;;4.30;1.58;;;17.10;75.80;;;;;;2081214;28;20068;-91
2021/09/01 01:45:09;;;;;;;4.35;1.60;;;17.10;75.80;;;;;;2088147;28;20021;-92
2021/09/01 01:46:10;;;;;;;4.50;1.48;;;17.10;75.80;;;;;;2089731;28;20411;-92
2021/09/01 01:47:11;;;;;;;5.22;1.70;;;17.10;75.80;;;;;;2087860;28;20037;-92
2021/09/01 01:48:14;;;;;;;4.82;1.73;;;17.10;75.80;;;;;;2074658;28;20072;-92
2021/09/01 01:49:14;;;;;;;5.60;1.67;;;17.10;75.70;;;;;;2095771;28;20043;-92
2021/09/01 01:50:15;;;;;;;5.68;1.70;;;17.10;75.80;;;;;;2080511;28;20065;-91
2021/09/01 01:51:16;;;;;;;5.63;1.50;;;17.10;75.80;;;;;;2089177;28;20451;-91
2021/09/01 01:52:16;;;;;;;3.35;1.40;;;17.10;75.80;;;;;;2097671;28;20025;-92
2021/09/01 01:53:17;;;;;;;5.10;1.55;;;17.10;75.90;;;;;;2082606;28;20095;-91
2021/09/01 01:54:18;;;;;;;3.20;1.35;;;17.10;75.90;;;;;;2067516;28;20030;-92
2021/09/01 01:55:19;;;;;;;4.07;1.60;;;17.00;75.90;;;;;;2081358;28;20029;-92
2021/09/01 01:56:19;;;;;;;4.53;1.48;;;17.00;76.00;;;;;;2089167;28;20045;-91
2021/09/01 01:57:20;;;;;;;6.85;1.70;;;17.00;76.00;;;;;;2081301;28;20156;-92
2021/09/01 01:58:21;;;;;;;5.18;1.50;;;17.00;76.10;;;;;;2080983;28;20037;-91
2021/09/01 01:59:22;;;;;;;5.25;1.63;;;17.00;76.10;;;;;;2080205;28;20032;-92
2021/09/01 02:00:23;;;;;;;3.40;1.65;;;17.00;76.10;;;;;;2088574;28;20025;-91
2021/09/01 02:01:23;;;;;;;4.18;1.40;;;17.00;76.10;;;;;;2080357;28;20075;-91
2021/09/01 02:02:30;;;;;;;4.63;1.60;;;17.00;76.10;;;;;;2073025;28;20026;-92
2021/09/01 02:03:31;;;;;;;3.55;1.40;;;17.00;76.10;;;;;;2083600;28;20032;-92
2021/09/01 02:04:31;;;;;;;3.97;1.55;;;17.00;76.20;;;;;;2075211;28;20077;-91
2021/09/01 02:05:32;;;;;;;4.43;1.73;;;17.00;76.20;;;;;;2082661;28;20115;-91
2021/09/01 02:06:33;;;;;;;3.45;1.40;;;17.00;76.30;;;;;;2090856;28;20025;-91
2021/09/01 02:07:34;;;;;;;4.03;1.40;;;17.00;76.30;;;;;;2082629;28;20029;-93
2021/09/01 02:08:35;;;;;;;3.30;1.50;;;17.00;76.40;;;;;;2082453;28;20386;-92
2021/09/01 02:09:35;;;;;;;4.93;1.50;;;17.10;76.40;;;;;;2081509;28;20518;-91
2021/09/01 02:10:36;;;;;;;3.90;1.35;;;17.10;76.40;;;;;;2090253;28;20040;-91
2021/09/01 02:11:37;;;;;;;4.95;1.70;;;17.10;76.40;;;;;;2082694;28;20411;-91
2021/09/01 02:12:40;;;;;;;4.43;1.52;;;17.10;76.40;;;;;;2074384;28;20030;-91
2021/09/01 02:13:40;;;;;;;5.40;1.45;;;17.10;76.40;;;;;;2075469;28;20035;-91
2021/09/01 02:14:41;;;;;;;5.85;2.10;;;17.10;76.40;;;;;;2075801;28;20470;-91
2021/09/01 02:15:42;;;;;;;7.28;1.70;;;17.10;76.40;;;;;;2067297;28;20106;-91
2021/09/01 02:16:43;;;;;;;5.03;1.88;;;17.10;76.40;;;;;;2084444;28;20081;-91
2021/09/01 02:17:44;;;;;;;3.53;1.27;;;17.10;76.50;;;;;;2081972;28;20521;-90
2021/09/01 02:18:44;;;;;;;3.88;1.40;;;17.10;76.50;;;;;;2075672;28;20170;-92
2021/09/01 02:19:45;;;;;;;3.83;1.40;;;17.10;76.50;;;;;;2087510;28;20033;-91
2021/09/01 02:20:46;;;;;;;4.55;1.58;;;17.10;76.50;;;;;;2098347;28;20073;-91
2021/09/01 02:21:46;;;;;;;4.63;1.55;;;17.10;76.60;;;;;;2074882;28;20030;-91
2021/09/01 02:22:47;;;;;;;5.60;1.33;;;17.10;76.60;;;;;;2065998;28;20034;-90
2021/09/01 02:23:48;;;;;;;4.63;1.60;;;17.10;76.50;;;;;;2074546;28;20030;-91
2021/09/01 02:24:49;;;;;;;3.85;1.50;;;17.10;77.10;;;;;;2081842;28;20040;-92
2021/09/01 02:25:49;;;;;;;4.25;1.60;;;17.10;76.40;;;;;;2087366;28;20052;-92
2021/09/01 02:26:50;;;;;;;3.05;1.40;;;17.10;76.40;;;;;;2075532;28;20088;-92
2021/09/01 02:27:51;;;;;;;4.97;1.67;;;17.10;76.40;;;;;;2086723;28;20029;-92
2021/09/01 02:28:51;;;;;;;4.63;1.50;;;17.10;76.40;;;;;;2083989;28;20053;-91
2021/09/01 02:29:52;;;;;;;4.50;1.63;;;17.10;76.40;;;;;;2085299;28;20038;-91
2021/09/01 02:30:53;;;;;;;4.78;1.77;;;17.10;76.30;;;;;;2085056;28;20037;-91
2021/09/01 02:31:54;;;;;;;6.00;1.83;;;17.10;76.40;;;;;;2085959;28;20025;-91
2021/09/01 02:32:55;;;;;;;4.80;1.63;;;17.10;76.40;;;;;;2093190;28;20075;-91
2021/09/01 02:33:55;;;;;;;4.65;1.67;;;17.10;76.40;;;;;;2087451;28;20073;-92
2021/09/01 02:34:56;;;;;;;6.40;1.80;;;17.00;76.30;;;;;;2086809;28;20119;-90
2021/09/01 02:35:57;;;;;;;4.68;1.50;;;17.00;76.30;;;;;;2079303;28;20025;-92
2021/09/01 02:36:58;;;;;;;4.63;1.77;;;17.00;76.30;;;;;;2078280;28;20038;-92
2021/09/01 02:37:59;;;;;;;4.05;1.75;;;17.00;76.30;;;;;;2084191;28;20040;-92
2021/09/01 02:38:59;;;;;;;5.53;1.85;;;17.00;76.40;;;;;;2083022;28;20034;-91
2021/09/01 02:40:00;;;;;;;3.88;1.42;;;17.00;76.40;;;;;;2084169;28;20029;-91
2021/09/01 02:41:01;;;;;;;4.25;1.77;;;17.10;76.40;;;;;;2085618;28;20037;-92
2021/09/01 02:42:02;;;;;;;3.15;1.38;;;17.10;76.50;;;;;;2070406;28;20078;-90
2021/09/01 02:43:02;;;;;;;3.67;1.50;;;17.00;76.50;;;;;;2088670;28;20030;-90
2021/09/01 02:44:03;;;;;;;5.10;1.80;;;17.00;76.50;;;;;;2108273;28;20040;-92
2021/09/01 02:45:05;;;;;;;5.10;1.83;;;17.00;76.50;;;;;;2085948;28;20542;-91
2021/09/01 02:46:05;;;;;;;4.68;1.70;;;17.00;76.60;;;;;;2087639;28;20033;-92
2021/09/01 02:47:06;;;;;;;4.53;1.67;;;17.10;76.60;;;;;;2095281;28;20116;-90
2021/09/01 02:48:07;;;;;;;5.72;1.63;;;17.00;76.60;;;;;;2087201;28;20049;-90
2021/09/01 02:49:07;;;;;;;4.40;1.60;;;17.00;76.60;;;;;;2094116;28;20040;-91
2021/09/01 02:50:08;;;;;;;5.22;1.80;;;17.00;76.60;;;;;;2084468;28;20146;-92
2021/09/01 02:51:09;;;;;;;4.35;1.73;;;17.00;76.60;;;;;;2083240;28;20030;-91
2021/09/01 02:52:10;;;;;;;4.22;1.70;;;17.00;76.50;;;;;;2091443;28;20016;-91
2021/09/01 02:53:11;;;;;;;5.38;1.85;;;17.00;76.60;;;;;;2100000;28;20115;-91
2021/09/01 02:54:11;;;;;;;5.30;1.70;;;17.00;76.60;;;;;;2082752;28;20022;-91
2021/09/01 02:55:12;;;;;;;5.57;1.80;;;17.00;76.50;;;;;;2076538;28;20034;-92
2021/09/01 02:56:13;;;;;;;4.20;1.60;;;16.90;76.40;;;;;;2076056;28;20057;-92
2021/09/01 02:57:13;;;;;;;4.90;1.70;;;17.00;76.50;;;;;;2082429;28;20399;-91
2021/09/01 02:58:15;;;;;;;4.65;1.70;;;17.00;76.60;;;;;;2080370;28;20103;-91
2021/09/01 02:59:16;;;;;;;4.38;1.75;;;17.00;76.60;;;;;;2093199;28;20029;-91
2021/09/01 03:00:16;;;;;;;5.50;1.73;;;16.90;76.60;;;;;;2090509;28;20029;-91
2021/09/01 03:01:17;;;;;;;4.40;1.60;;;16.90;76.60;;;;;;2082573;28;20033;-91
2021/09/01 03:02:18;;;;;;;5.32;2.03;;;16.90;76.50;;;;;;2083909;28;20029;-92
2021/09/01 03:03:18;;;;;;;4.47;1.75;;;16.90;76.50;;;;;;2078198;28;20116;-91
2021/09/01 03:04:19;;;;;;;6.20;1.83;;;17.00;76.60;;;;;;2086604;28;20017;-91
2021/09/01 03:05:20;;;;;;;5.18;2.00;;;17.00;77.20;;;;;;2078447;28;20098;-90
2021/09/01 03:06:20;;;;;;;3.13;1.55;;;16.90;76.60;;;;;;2079156;28;20117;-91
2021/09/01 03:07:21;;;;;;;3.95;1.70;;;16.90;76.60;;;;;;2082127;28;20120;-91
2021/09/01 03:08:24;;;;;;;6.50;1.67;;;16.90;76.60;;;;;;2095181;28;20029;-91
2021/09/01 03:09:25;;;;;;;4.25;1.85;;;16.90;76.60;;;;;;2087124;28;20048;-91
2021/09/01 03:10:26;;;;;;;5.72;1.90;;;16.90;76.50;;;;;;2074251;28;20030;-92
2021/09/01 03:11:27;;;;;;;6.90;1.67;;;16.90;76.60;;;;;;2073802;28;20018;-91
2021/09/01 03:12:27;;;;;;;4.70;1.65;;;16.90;76.50;;;;;;2082354;28;20113;-91
2021/09/01 03:13:28;;;;;;;5.32;1.50;;;16.90;76.50;;;;;;2074074;28;20058;-91
2021/09/01 03:14:29;;;;;;;4.95;1.90;;;16.90;76.50;;;;;;2083692;28;20043;-92
2021/09/01 03:15:30;;;;;;;4.88;1.83;;;17.00;76.60;;;;;;2082303;28;20679;-91
2021/09/01 03:16:31;;;;;;;3.72;1.60;;;16.90;77.10;;;;;;2085546;28;20102;-91
2021/09/01 03:17:31;;;;;;;5.40;1.90;;;16.90;76.50;;;;;;2076696;28;20491;-91
2021/09/01 03:18:32;;;;;;;5.40;1.90;;;16.90;76.40;;;;;;2065265;28;20084;-91
2021/09/01 03:19:33;;;;;;;4.47;1.63;;;16.90;76.40;;;;;;2081660;28;20048;-91
2021/09/01 03:20:33;;;;;;;5.78;1.90;;;17.00;76.50;;;;;;2081375;28;20087;-91
2021/09/01 03:21:34;;;;;;;5.65;1.83;;;16.90;76.60;;;;;;2073717;28;20045;-91
2021/09/01 03:22:35;;;;;;;4.43;1.52;;;17.00;76.50;;;;;;2082305;28;20037;-91
2021/09/01 03:23:35;;;;;;;5.05;1.92;;;16.90;76.50;;;;;;2082206;28;20051;-91
2021/09/01 03:24:36;;;;;;;4.35;1.80;;;17.00;76.50;;;;;;2073992;28;20500;-92
2021/09/01 03:25:37;;;;;;;5.57;2.00;;;16.90;76.40;;;;;;2074097;28;20120;-91
2021/09/01 03:26:37;;;;;;;4.63;1.80;;;16.90;76.40;;;;;;2082358;28;20061;-92
2021/09/01 03:27:38;;;;;;;4.63;1.80;;;17.00;76.50;;;;;;2087530;28;20037;-90
2021/09/01 03:28:39;;;;;;;5.90;2.10;;;17.00;76.50;;;;;;2085978;28;20048;-91
2021/09/01 03:29:40;;;;;;;4.97;1.75;;;17.00;76.50;;;;;;2090592;28;20025;-91
2021/09/01 03:30:40;;;;;;;6.70;1.80;;;16.90;76.40;;;;;;2065899;28;20026;-92
2021/09/01 03:31:41;;;;;;;5.53;1.85;;;16.90;76.40;;;;;;2074330;28;20029;-92
2021/09/01 03:32:42;;;;;;;3.47;1.58;;;16.90;76.40;;;;;;2082215;28;20462;-91
2021/09/01 03:33:43;;;;;;;4.93;1.80;;;16.90;76.50;;;;;;2082041;28;20021;-91
2021/09/01 03:34:43;;;;;;;4.25;1.88;;;16.90;76.50;;;;;;2065887;28;20508;-91
2021/09/01 03:35:44;;;;;;;4.68;1.90;;;16.90;77.20;;;;;;2067849;28;20045;-91
2021/09/01 03:36:45;;;;;;;5.00;1.75;;;16.90;76.50;;;;;;2088887;28;20063;-91
2021/09/01 03:37:46;;;;;;;4.50;1.83;;;16.90;76.50;;;;;;2090104;28;20032;-91
2021/09/01 03:38:46;;;;;;;5.18;1.80;;;16.90;76.60;;;;;;2081743;28;20033;-91
2021/09/01 03:39:47;;;;;;;4.00;1.65;;;16.90;76.60;;;;;;2081694;28;20104;-92
2021/09/01 03:40:48;;;;;;;4.75;1.70;;;16.90;76.60;;;;;;2081863;28;20026;-91
2021/09/01 03:41:48;;;;;;;6.07;2.53;;;16.90;76.50;;;;;;2078663;28;20026;-91
2021/09/01 03:42:49;;;;;;;5.43;1.70;;;16.90;76.50;;;;;;2081937;28;20588;-92
2021/09/01 03:43:50;;;;;;;6.53;2.03;;;16.90;76.50;;;;;;2082968;28;20022;-92
2021/09/01 03:44:50;;;;;;;3.78;1.73;;;16.80;76.60;;;;;;2086310;28;20025;-92
2021/09/01 03:45:54;;;;;;;5.95;1.80;;;16.80;76.60;;;;;;2076243;28;20030;-91
2021/09/01 03:46:55;;;;;;;4.90;1.90;;;16.80;76.60;;;;;;2093605;28;20086;-91
2021/09/01 03:47:56;;;;;;;5.28;1.70;;;16.80;76.60;;;;;;2093649;28;20021;-91
2021/09/01 03:48:56;;;;;;;5.60;1.92;;;16.80;76.60;;;;;;2073651;28;20014;-91
2021/09/01 03:49:57;;;;;;;6.78;1.83;;;16.80;76.60;;;;;;2081967;28;20033;-92
2021/09/01 03:50:58;;;;;;;4.00;1.98;;;16.80;76.60;;;;;;2089550;28;20029;-91
2021/09/01 03:52:01;;;;;;;4.60;1.63;;;16.80;76.60;;;;;;2081869;28;20033;-93
2021/09/01 03:53:02;;;;;;;4.10;1.80;;;16.80;76.40;;;;;;2074498;28;20026;-92
2021/09/01 03:54:03;;;;;;;4.20;1.80;;;16.80;76.40;;;;;;2081962;28;20068;-92
2021/09/01 03:55:08;;;;;;;5.22;1.80;;;16.80;76.30;;;;;;2086517;28;20065;-92
2021/09/01 03:56:09;;;;;;;6.40;1.92;;;16.80;76.30;;;;;;2083460;28;20556;-92
2021/09/01 03:57:10;;;;;;;4.57;1.70;;;16.80;76.20;;;;;;2088105;28;20503;-91
2021/09/01 03:58:12;;;;;;;6.07;1.88;;;16.80;76.20;;;;;;2087658;28;20028;-92
2021/09/01 03:59:12;;;;;;;3.78;1.55;;;16.80;76.20;;;;;;2083569;28;20437;-92
2021/09/01 04:00:14;;;;;;;4.70;1.75;;;16.80;76.20;;;;;;2077517;28;20030;-91
2021/09/01 04:01:14;;;;;;;4.80;1.70;;;16.80;76.30;;;;;;2082185;28;20025;-90
2021/09/01 04:02:15;;;;;;;5.60;1.80;;;16.80;76.20;;;;;;2089854;28;20029;-92
2021/09/01 04:03:16;;;;;;;5.22;1.75;;;16.80;76.00;;;;;;2081760;28;20029;-92
2021/09/01 04:04:17;;;;;;;5.72;2.08;;;16.80;76.00;;;;;;2098050;28;20133;-91
2021/09/01 04:05:17;;;;;;;6.15;2.30;;;16.70;75.80;;;;;;2090086;28;20032;-91
2021/09/01 04:06:18;;;;;;;6.40;2.10;;;16.70;75.60;;;;;;2083082;28;20018;-91
2021/09/01 04:07:19;;;;;;;5.53;2.10;;;16.70;75.50;;;;;;2081375;28;20586;-91
2021/09/01 04:08:20;;;;;;;4.32;1.83;;;16.60;75.40;;;;;;2090361;28;20376;-91
2021/09/01 04:09:20;;;;;;;5.10;1.77;;;16.60;75.40;;;;;;2081742;28;20033;-92
2021/09/01 04:10:22;;;;;;;5.07;1.95;;;16.60;75.40;;;;;;2091771;28;20514;-92
2021/09/01 04:11:23;;;;;;;4.03;1.83;;;16.60;75.50;;;;;;2080811;28;20112;-91
2021/09/01 04:12:24;;;;;;;4.28;1.77;;;16.60;75.50;;;;;;2081550;28;20041;-91
2021/09/01 04:13:24;;;;;;;4.32;1.63;;;16.60;75.40;;;;;;2090064;28;20029;-91
2021/09/01 04:14:25;;;;;;;4.00;1.60;;;16.60;75.40;;;;;;2090201;28;20036;-92
2021/09/01 04:15:26;;;;;;;5.97;2.20;;;16.60;75.40;;;;;;2089497;28;20032;-92
2021/09/01 04:16:27;;;;;;;5.18;1.70;;;16.60;75.30;;;;;;2081233;28;20038;-92
2021/09/01 04:17:30;;;;;;;3.85;1.52;;;16.60;75.30;;;;;;2088945;28;20045;-92
2021/09/01 04:18:31;;;;;;;4.63;1.70;;;16.60;75.30;;;;;;2090022;28;20033;-92
2021/09/01 04:19:32;;;;;;;4.70;1.73;;;16.60;75.30;;;;;;2082315;28;20121;-92
2021/09/01 04:20:32;;;;;;;4.45;1.70;;;16.60;75.30;;;;;;2081558;28;20541;-91
2021/09/01 04:21:33;;;;;;;5.47;1.65;;;16.60;75.20;;;;;;2081261;28;20075;-92
2021/09/01 04:22:34;;;;;;;4.95;1.42;;;16.60;75.20;;;;;;2075334;28;20022;-92
2021/09/01 04:23:35;;;;;;;2.88;1.40;;;16.60;75.10;;;;;;2081749;28;20026;-92
2021/09/01 04:24:36;;;;;;;4.18;1.70;;;16.70;75.10;;;;;;2083680;28;20026;-92
2021/09/01 04:25:36;;;;;;;4.82;2.25;;;16.60;75.10;;;;;;2089537;28;20532;-92
2021/09/01 04:26:37;;;;;;;4.00;1.55;;;16.70;75.10;;;;;;2089544;28;20033;-91
2021/09/01 04:27:38;;;;;;;4.20;1.60;;;16.70;75.10;;;;;;2077135;28;20057;-91
2021/09/01 04:28:39;;;;;;;3.17;1.33;;;16.70;75.00;;;;;;2089524;28;20541;-91
2021/09/01 04:29:40;;;;;;;3.30;1.40;;;16.70;75.00;;;;;;2074923;28;20030;-92
2021/09/01 04:30:40;;;;;;;4.93;1.63;;;16.70;75.00;;;;;;2065381;28;20042;-91
2021/09/01 04:31:41;;;;;;;5.07;1.58;;;16.70;75.00;;;;;;2071034;28;20033;-91
2021/09/01 04:32:42;;;;;;;4.60;1.73;;;16.70;74.90;;;;;;2084744;28;20033;-92
2021/09/01 04:33:43;;;;;;;6.13;1.80;;;16.70;75.00;;;;;;2089423;28;20111;-91
2021/09/01 04:34:44;;;;;;;4.53;1.45;;;16.70;74.90;;;;;;2089740;28;20095;-91
2021/09/01 04:35:44;;;;;;;4.05;1.40;;;16.70;74.90;;;;;;2098273;28;20027;-92
2021/09/01 04:36:45;;;;;;;4.53;1.60;;;16.70;74.90;;;;;;2093636;28;20047;-91
2021/09/01 04:37:46;;;;;;;3.92;1.42;;;16.70;74.90;;;;;;2073232;28;20504;-92
2021/09/01 04:38:46;;;;;;;3.78;1.48;;;16.70;74.90;;;;;;2081364;28;20041;-92
2021/09/01 04:39:47;;;;;;;4.70;1.50;;;16.60;74.90;;;;;;2077867;28;20423;-92
2021/09/01 04:40:48;;;;;;;4.43;1.67;;;16.70;74.90;;;;;;2073484;28;20026;-92
2021/09/01 04:41:49;;;;;;;3.42;1.40;;;16.70;75.00;;;;;;2074863;28;20029;-92
2021/09/01 04:42:49;;;;;;;5.22;1.40;;;16.70;75.00;;;;;;2073549;28;20033;-93
2021/09/01 04:43:50;;;;;;;3.88;1.40;;;16.70;75.00;;;;;;2074554;28;20029;-92
2021/09/01 04:44:51;;;;;;;3.45;1.45;;;16.70;74.90;;;;;;2089364;28;20029;-93
2021/09/01 04:45:51;;;;;;;4.38;1.70;;;16.70;74.90;;;;;;2081375;28;20025;-92
2021/09/01 04:46:52;;;;;;;3.15;1.23;;;16.70;74.90;;;;;;2081569;28;20029;-92
2021/09/01 04:47:53;;;;;;;4.20;1.60;;;16.70;75.00;;;;;;2081364;28;20045;-92
2021/09/01 04:48:54;;;;;;;4.00;1.67;;;16.70;75.00;;;;;;2081614;28;20534;-93
2021/09/01 04:49:54;;;;;;;3.63;1.40;;;16.70;75.00;;;;;;2081306;28;20038;-93
2021/09/01 04:50:55;;;;;;;3.83;1.48;;;16.70;75.00;;;;;;2081418;28;20041;-93
2021/09/01 04:51:56;;;;;;;4.18;1.65;;;16.70;75.00;;;;;;2089222;28;20053;-92
2021/09/01 04:52:56;;;;;;;3.33;1.52;;;16.70;75.00;;;;;;2093559;28;20033;-92
2021/09/01 04:53:57;;;;;;;3.95;1.52;;;16.70;75.00;;;;;;2089719;28;20075;-93
2021/09/01 04:54:59;;;;;;;3.20;1.40;;;16.70;75.00;;;;;;2089778;28;20051;-93
2021/09/01 04:55:59;;;;;;;3.90;1.45;;;16.70;75.00;;;;;;2072986;28;20088;-92
2021/09/01 04:57:00;;;;;;;3.63;1.38;;;16.70;75.00;;;;;;2078954;28;20038;-93
2021/09/01 04:58:01;;;;;;;4.90;1.52;;;16.70;75.00;;;;;;2075752;28;20161;-94
2021/09/01 04:59:02;;;;;;;3.47;1.30;;;16.70;75.00;;;;;;2073436;28;20487;-92
2021/09/01 05:00:04;;;;;;;3.88;1.45;;;16.70;75.00;;;;;;2081615;28;20025;-92
2021/09/01 05:01:05;;;;;;;5.65;1.73;;;16.70;75.00;;;;;;2090735;28;20028;-92
2021/09/01 05:02:06;;;;;;;3.40;1.60;;;16.70;74.90;;;;;;2087603;28;20116;-92
2021/09/01 05:03:06;;;;;;;3.78;1.60;;;16.70;74.90;;;;;;2084434;28;20067;-92
2021/09/01 05:04:07;;;;;;;4.43;1.50;;;16.70;74.90;;;;;;2083683;28;20033;-92
2021/09/01 05:05:08;;;;;;;5.05;1.77;;;16.70;75.00;;;;;;2084463;28;20163;-93
2021/09/01 05:06:09;;;;;;;5.10;1.73;;;16.70;74.90;;;;;;2084570;28;20036;-92
2021/09/01 05:07:10;;;;;;;4.05;1.70;;;16.70;74.90;;;;;;2081190;28;20065;-92
2021/09/01 05:08:11;;;;;;;4.03;1.60;;;16.70;75.00;;;;;;2073612;28;20029;-92
2021/09/01 05:09:11;;;;;;;4.70;1.70;;;16.70;75.10;;;;;;2081639;28;20091;-93
2021/09/01 05:10:12;;;;;;;4.22;1.75;;;16.70;75.10;;;;;;2073400;28;20108;-92
2021/09/01 05:11:13;;;;;;;4.55;1.50;;;16.70;75.20;;;;;;2073625;28;20510;-93
2021/09/01 05:12:13;;;;;;;3.72;1.52;;;16.70;75.20;;;;;;2081661;28;20018;-92
2021/09/01 05:13:14;;;;;;;4.93;1.70;;;16.70;75.10;;;;;;2073674;28;20068;-93
2021/09/01 05:14:15;;;;;;;4.32;1.60;;;16.70;75.10;;;;;;2076018;28;20100;-93
2021/09/01 05:15:16;;;;;;;4.40;1.58;;;16.70;75.10;;;;;;2081153;28;20029;-92
2021/09/01 05:16:17;;;;;;;3.80;1.50;;;16.70;75.20;;;;;;2081454;28;20049;-92
2021/09/01 05:17:18;;;;;;;2.85;1.25;;;16.70;75.30;;;;;;2072644;28;20371;-91
2021/09/01 05:18:18;;;;;;;3.17;1.40;;;16.70;75.30;;;;;;2081215;28;20052;-93
2021/09/01 05:19:19;;;;;;;3.00;1.40;;;16.70;75.30;;;;;;2098084;28;20017;-93